Time;durP1;ratioP1;P1;durP2;ratioP2;P2;SDS_P1;SDS_P2;PMS_P1;PMS_P2;Temp;Humidity;BMP_temperature;BMP_pressure;BME280_temperature;BME280_humidity;BME280_pressure;Samples;Min_cycle;Max_cycle;Signal;HPM_P1;HPM_P2
2022/09/03 00:00:08;;;;;;;0.67;0.67;;;;;;;22.17;53.77;95029.63;5054950;28;20445;-60
2022/09/03 00:02:42;;;;;;;0.63;0.63;;;;;;;22.07;53.51;95030.03;5036531;28;20815;-60
2022/09/03 00:05:15;;;;;;;0.90;0.90;;;;;;;22.25;53.34;95036.00;5063705;28;20542;-63
2022/09/03 00:08:07;;;;;;;0.43;0.30;;;;;;;22.26;53.25;95038.38;5042115;28;20210;-63
2022/09/03 00:11:01;;;;;;;0.30;0.30;;;;;;;22.26;53.34;95042.94;5054878;28;20447;-64
2022/09/03 00:13:37;;;;;;;0.40;0.40;;;;;;;22.67;52.54;95038.38;5050403;28;20512;-63
2022/09/03 00:16:10;;;;;;;1.10;0.73;;;;;;;22.63;52.58;95042.81;5064627;28;20487;-66
2022/09/03 00:18:47;;;;;;;1.63;1.27;;;;;;;22.14;53.50;95040.97;5038716;28;21738;-66
2022/09/03 00:21:21;;;;;;;0.43;0.43;;;;;;;22.33;53.31;95035.97;5044581;28;20519;-67
2022/09/03 00:23:50;;;;;;;0.50;0.50;;;;;;;21.63;54.64;95041.22;5030269;28;20543;-65
2022/09/03 00:26:26;;;;;;;0.10;0.10;;;;;;;22.03;53.57;95043.22;5044816;28;20431;-64
2022/09/03 00:29:05;;;;;;;0.50;0.50;;;;;;;22.18;53.26;95031.19;5030379;28;20542;-67
2022/09/03 00:31:41;;;;;;;0.37;0.37;;;;;;;22.37;53.19;95039.53;5042912;28;20899;-63
2022/09/03 00:34:31;;;;;;;0.20;0.20;;;;;;;22.32;52.97;95037.06;5055090;28;20439;-63
2022/09/03 00:36:58;;;;;;;0.23;0.23;;;;;;;22.68;51.67;95034.59;5048467;28;20870;-63
2022/09/03 00:39:26;;;;;;;0.33;0.33;;;;;;;22.56;51.94;95031.88;5068142;28;20499;-62
2022/09/03 00:42:06;;;;;;;0.13;0.13;;;;;;;22.14;53.05;95035.63;5029938;28;20479;-63
2022/09/03 00:45:10;;;;;;;0.20;0.20;;;;;;;22.61;51.78;95012.97;5029548;28;20484;-65
2022/09/03 00:48:02;;;;;;;0.60;0.60;;;;;;;22.76;51.26;95036.44;5042727;28;20439;-62
2022/09/03 00:51:00;;;;;;;0.20;0.20;;;;;;;22.64;51.73;95028.38;5031506;28;20812;-63
2022/09/03 00:53:39;;;;;;;1.67;1.13;;;;;;;21.99;53.04;95038.84;5062031;28;20475;-64
2022/09/03 00:56:38;;;;;;;0.13;0.13;;;;;;;22.09;52.45;95036.59;5044517;28;20447;-63
2022/09/03 00:59:43;;;;;;;0.50;0.50;;;;;;;22.37;51.95;95044.88;5039636;28;20442;-64
2022/09/03 01:02:35;;;;;;;0.30;0.30;;;;;;;22.06;52.89;95041.81;5084590;28;20491;-65
2022/09/03 01:05:18;;;;;;;0.73;0.73;;;;;;;21.75;53.42;95038.66;5049952;28;20455;-65
2022/09/03 01:08:15;;;;;;;2.90;1.73;;;;;;;22.32;51.96;95042.41;5056340;28;20443;-64
2022/09/03 01:10:52;;;;;;;0.47;0.47;;;;;;;21.93;53.19;95042.81;5064042;28;20448;-62
2022/09/03 01:13:30;;;;;;;0.20;0.20;;;;;;;21.93;53.12;95037.50;5050023;28;20533;-63
2022/09/03 01:16:04;;;;;;;0.73;0.73;;;;;;;21.98;53.01;95034.63;5065693;28;20441;-62
2022/09/03 01:18:42;;;;;;;0.40;0.40;;;;;;;21.93;52.69;95042.81;5049214;28;20553;-64
2022/09/03 01:21:22;;;;;;;2.50;0.87;;;;;;;22.14;52.57;95046.28;5053785;28;20478;-64
2022/09/03 01:23:55;;;;;;;0.40;0.40;;;;;;;21.76;53.46;95034.88;5068971;28;20434;-64
2022/09/03 01:26:29;;;;;;;0.87;0.87;;;;;;;21.97;53.19;95035.72;5062909;28;21010;-61
2022/09/03 01:29:04;;;;;;;0.23;0.23;;;;;;;21.60;54.30;95041.84;5049269;28;21006;-65
2022/09/03 01:31:49;;;;;;;0.43;0.43;;;;;;;21.17;55.50;95056.09;5049063;28;20484;-65
2022/09/03 01:34:25;;;;;;;0.40;0.40;;;;;;;21.05;55.96;95056.00;5063772;28;20893;-64
2022/09/03 01:36:58;;;;;;;0.40;0.40;;;;;;;21.63;54.00;95067.88;5069111;28;21303;-61
2022/09/03 01:40:02;;;;;;;0.30;0.30;;;;;;;20.86;56.42;95070.69;5053010;28;20945;-65
2022/09/03 01:43:02;;;;;;;0.30;0.30;;;;;;;21.50;54.44;95063.53;5029093;28;20573;-63
2022/09/03 01:45:36;;;;;;;0.30;0.30;;;;;;;21.13;55.48;95070.38;5027476;28;20510;-65
2022/09/03 01:48:13;;;;;;;0.30;0.30;;;;;;;21.83;53.52;95059.19;5058768;28;20446;-66
2022/09/03 01:51:19;;;;;;;0.13;0.13;;;;;;;21.76;53.32;95062.34;5039256;28;20463;-63
2022/09/03 01:54:14;;;;;;;0.30;0.30;;;;;;;21.70;53.31;95057.47;5054856;28;20872;-65
2022/09/03 01:57:02;;;;;;;0.53;0.53;;;;;;;21.94;52.88;95052.38;5035146;28;20542;-62
2022/09/03 01:59:33;;;;;;;0.53;0.53;;;;;;;22.10;52.58;95054.16;5045662;28;20775;-65
2022/09/03 02:02:09;;;;;;;0.20;0.20;;;;;;;22.02;52.96;95054.22;5039863;28;20483;-62
2022/09/03 02:04:37;;;;;;;0.47;0.47;;;;;;;22.28;52.00;95057.50;5048882;28;20442;-66
2022/09/03 02:07:05;;;;;;;0.20;0.20;;;;;;;21.90;52.66;95054.91;5062369;28;20449;-63
2022/09/03 02:09:31;;;;;;;0.30;0.30;;;;;;;22.33;52.00;95054.66;5042943;28;20952;-66
2022/09/03 02:12:14;;;;;;;0.20;0.20;;;;;;;21.87;52.86;95054.78;5042750;28;21146;-66
2022/09/03 02:14:42;;;;;;;0.40;0.40;;;;;;;21.65;53.37;95055.00;5043750;28;20438;-62
2022/09/03 02:17:10;;;;;;;0.80;0.80;;;;;;;21.62;53.31;95063.66;5041446;28;20525;-63
2022/09/03 02:19:38;;;;;;;0.40;0.40;;;;;;;21.71;53.14;95069.72;5034760;28;20990;-63
2022/09/03 02:22:05;;;;;;;0.70;0.70;;;;;;;22.10;52.46;95077.41;5049021;28;20486;-63
2022/09/03 02:24:32;;;;;;;0.40;0.40;;;;;;;22.04;52.53;95065.38;5066861;28;20961;-64
2022/09/03 02:26:59;;;;;;;0.83;0.83;;;;;;;22.31;51.40;95067.53;5042190;28;20451;-66
2022/09/03 02:29:26;;;;;;;0.30;0.30;;;;;;;22.20;51.70;95074.38;5066770;28;20445;-62
2022/09/03 02:31:53;;;;;;;0.43;0.30;;;;;;;21.65;52.68;95071.78;5054276;28;20527;-63
2022/09/03 02:34:20;;;;;;;0.40;0.40;;;;;;;21.81;52.97;95085.41;5034598;28;20969;-63
2022/09/03 02:36:47;;;;;;;0.43;0.43;;;;;;;21.92;52.18;95067.91;5072102;28;20462;-65
2022/09/03 02:39:15;;;;;;;0.83;0.60;;;;;;;22.07;51.96;95067.38;5072293;28;20441;-62
2022/09/03 02:41:43;;;;;;;0.30;0.30;;;;;;;22.21;51.59;95070.59;5059986;28;20582;-65
2022/09/03 02:44:32;;;;;;;0.43;0.43;;;;;;;22.15;51.69;95069.22;5031571;28;20508;-64
2022/09/03 02:47:01;;;;;;;0.50;0.50;;;;;;;21.88;52.04;95067.00;5045805;28;20444;-65
2022/09/03 02:49:29;;;;;;;1.50;1.40;;;;;;;22.00;52.01;95073.25;5071877;28;20960;-62
2022/09/03 02:52:04;;;;;;;0.47;0.47;;;;;;;21.97;51.90;95073.88;5037376;28;20453;-66
2022/09/03 02:54:34;;;;;;;1.33;0.83;;;;;;;22.19;51.13;95083.47;5052168;28;20442;-62
2022/09/03 02:57:02;;;;;;;0.23;0.23;;;;;;;21.83;52.60;95080.53;5038072;28;20439;-63
2022/09/03 02:59:29;;;;;;;0.43;0.43;;;;;;;21.92;52.35;95086.59;5044016;28;20468;-64
2022/09/03 03:01:55;;;;;;;0.37;0.37;;;;;;;22.43;50.66;95080.97;5032730;28;20487;-65
2022/09/03 03:04:28;;;;;;;0.30;0.30;;;;;;;22.12;51.74;95084.00;5071264;28;20446;-63
2022/09/03 03:06:55;;;;;;;0.23;0.23;;;;;;;21.99;52.13;95082.31;5058439;28;20852;-64
2022/09/03 03:09:22;;;;;;;0.30;0.30;;;;;;;22.06;51.60;95076.50;5036948;28;20439;-61
2022/09/03 03:11:54;;;;;;;0.40;0.40;;;;;;;22.05;51.42;95082.94;5039841;28;20497;-67
2022/09/03 03:14:21;;;;;;;0.87;0.87;;;;;;;21.58;52.77;95086.72;5063981;28;20488;-65
2022/09/03 03:16:49;;;;;;;0.20;0.20;;;;;;;21.50;52.88;95079.53;5062443;28;20441;-65
2022/09/03 03:19:16;;;;;;;0.60;0.60;;;;;;;21.81;52.10;95056.84;5054088;28;21212;-65
2022/09/03 03:21:43;;;;;;;0.67;0.67;;;;;;;21.53;53.36;95068.25;5061021;28;20473;-62
2022/09/03 03:24:10;;;;;;;0.50;0.50;;;;;;;21.54;53.13;95067.91;5042962;28;20448;-64
2022/09/03 03:26:37;;;;;;;1.37;0.93;;;;;;;22.11;51.53;95073.63;5063338;28;20902;-65
2022/09/03 03:29:04;;;;;;;1.23;1.13;;;;;;;21.87;51.99;95074.25;5051420;28;20487;-65
2022/09/03 03:31:32;;;;;;;0.10;0.10;;;;;;;21.65;52.72;95076.34;5051408;28;20972;-64
2022/09/03 03:34:01;;;;;;;0.20;0.20;;;;;;;21.28;53.52;95074.41;5038062;28;20436;-67
2022/09/03 03:36:31;;;;;;;0.80;0.80;;;;;;;21.79;52.17;95071.59;5064070;28;20512;-65
2022/09/03 03:38:59;;;;;;;0.87;0.57;;;;;;;21.97;51.60;95081.06;5051722;28;20451;-64
2022/09/03 03:41:30;;;;;;;0.73;0.73;;;;;;;21.82;52.22;95081.66;5061251;28;20493;-65
2022/09/03 03:44:00;;;;;;;0.80;0.80;;;;;;;22.42;50.59;95079.41;5041014;28;21225;-62
2022/09/03 03:46:33;;;;;;;0.90;0.90;;;;;;;21.94;51.31;95085.19;5039754;28;21006;-65
2022/09/03 03:49:00;;;;;;;0.13;0.13;;;;;;;22.42;50.28;95078.63;5050952;28;20448;-65
2022/09/03 03:51:29;;;;;;;0.80;0.80;;;;;;;22.75;49.59;95088.31;5034219;28;21022;-63
2022/09/03 03:53:57;;;;;;;0.30;0.30;;;;;;;21.99;51.49;95077.00;5063147;28;20851;-62
2022/09/03 03:56:28;;;;;;;0.97;0.83;;;;;;;22.30;50.82;95076.66;5039040;28;20482;-64
2022/09/03 03:58:58;;;;;;;0.87;0.87;;;;;;;22.13;50.93;95082.09;5058934;28;20794;-64
2022/09/03 04:01:26;;;;;;;0.67;0.57;;;;;;;22.27;50.93;95084.53;5051329;28;20450;-63
2022/09/03 04:03:54;;;;;;;0.60;0.60;;;;;;;22.19;51.30;95088.81;5054284;28;20446;-61
2022/09/03 04:06:22;;;;;;;0.77;0.77;;;;;;;21.97;51.43;95089.09;5050847;28;20446;-63
2022/09/03 04:08:49;;;;;;;0.60;0.53;;;;;;;22.30;50.55;95086.56;5036414;28;20515;-63
2022/09/03 04:11:21;;;;;;;0.53;0.53;;;;;;;22.31;50.18;95086.22;5058115;28;20449;-62
2022/09/03 04:13:49;;;;;;;0.83;0.83;;;;;;;22.19;50.42;95069.34;5070617;28;20943;-64
2022/09/03 04:16:19;;;;;;;1.10;0.97;;;;;;;22.05;50.83;95086.38;5064325;28;20449;-62
2022/09/03 04:18:48;;;;;;;0.40;0.40;;;;;;;22.38;50.34;95089.16;5063774;28;20561;-64
2022/09/03 04:21:18;;;;;;;1.50;1.13;;;;;;;22.50;49.80;95086.56;5070360;28;20846;-63
2022/09/03 04:23:46;;;;;;;1.83;0.80;;;;;;;22.80;49.21;95090.78;5046670;28;20590;-64
2022/09/03 04:26:17;;;;;;;0.33;0.33;;;;;;;22.73;49.35;95089.72;5053320;28;20438;-65
2022/09/03 04:28:44;;;;;;;0.20;0.20;;;;;;;21.98;50.70;95093.34;5059672;28;20525;-66
2022/09/03 04:31:13;;;;;;;1.03;0.97;;;;;;;22.40;50.16;95097.63;5039515;28;20434;-63
2022/09/03 04:33:41;;;;;;;0.73;0.73;;;;;;;22.14;50.77;95099.69;5069270;28;21433;-63
2022/09/03 04:36:14;;;;;;;0.30;0.30;;;;;;;22.09;50.39;95103.31;5065910;28;20430;-64
2022/09/03 04:38:43;;;;;;;1.07;1.03;;;;;;;22.62;49.57;95100.03;5047725;28;21332;-66
2022/09/03 04:41:30;;;;;;;0.10;0.10;;;;;;;22.27;50.02;95114.69;5042123;28;20440;-67
2022/09/03 04:43:58;;;;;;;1.07;0.97;;;;;;;21.75;51.31;95113.34;5070179;28;20473;-64
2022/09/03 04:46:31;;;;;;;1.80;1.60;;;;;;;21.80;51.49;95118.53;5055131;28;20570;-63
2022/09/03 04:49:00;;;;;;;0.30;0.30;;;;;;;22.19;50.45;95120.84;5070085;28;20442;-66
2022/09/03 04:51:28;;;;;;;0.20;0.20;;;;;;;21.58;51.75;95124.06;5040778;28;20447;-67
2022/09/03 04:53:59;;;;;;;0.50;0.50;;;;;;;21.77;51.63;95124.47;5061039;28;20969;-66
2022/09/03 04:56:29;;;;;;;0.60;0.60;;;;;;;21.80;51.26;95131.84;5030357;28;20505;-66
2022/09/03 04:58:59;;;;;;;1.07;0.97;;;;;;;22.00;50.88;95131.94;5028847;28;20539;-63
2022/09/03 05:01:29;;;;;;;0.10;0.10;;;;;;;22.27;50.04;95125.34;5034453;28;20449;-64
2022/09/03 05:03:57;;;;;;;0.30;0.30;;;;;;;21.72;51.24;95145.97;5029142;28;20855;-62
2022/09/03 05:06:26;;;;;;;0.97;0.83;;;;;;;21.97;50.86;95145.13;5038509;28;20440;-63
2022/09/03 05:08:54;;;;;;;0.23;0.23;;;;;;;21.90;51.20;95144.84;5035293;28;20447;-67
2022/09/03 05:11:23;;;;;;;0.87;0.87;;;;;;;22.17;50.23;95152.41;5029449;28;20436;-62
2022/09/03 05:13:53;;;;;;;1.23;1.03;;;;;;;21.67;51.84;95154.94;5028898;28;20848;-63
2022/09/03 05:16:21;;;;;;;2.10;0.63;;;;;;;22.11;50.96;95151.03;5031377;28;20949;-63
2022/09/03 05:18:51;;;;;;;4.00;1.17;;;;;;;22.27;50.48;95146.72;5031426;28;20957;-62
2022/09/03 05:21:19;;;;;;;0.40;0.40;;;;;;;22.10;50.71;95133.44;5034131;28;20452;-66
2022/09/03 05:23:49;;;;;;;0.80;0.80;;;;;;;21.87;51.20;95148.16;5028124;28;20578;-65
2022/09/03 05:26:30;;;;;;;0.37;0.37;;;;;;;21.90;50.93;95150.16;5028473;28;20456;-66
2022/09/03 05:29:00;;;;;;;0.53;0.53;;;;;;;22.58;49.73;95144.53;5041130;28;20447;-66
2022/09/03 05:31:30;;;;;;;0.27;0.27;;;;;;;22.42;49.94;95142.72;5053312;28;20442;-63
2022/09/03 05:34:00;;;;;;;0.30;0.30;;;;;;;21.95;50.95;95153.44;5044175;28;20456;-66
2022/09/03 05:36:30;;;;;;;1.13;1.03;;;;;;;22.24;49.76;95151.91;5065011;28;20445;-65
2022/09/03 05:38:58;;;;;;;0.97;0.73;;;;;;;22.63;49.64;95151.53;5046106;28;20456;-66
2022/09/03 05:41:26;;;;;;;1.03;0.80;;;;;;;22.42;49.60;95154.19;5034910;28;20469;-64
2022/09/03 05:43:57;;;;;;;0.50;0.50;;;;;;;22.36;49.69;95158.13;5067536;28;20489;-66
2022/09/03 05:46:30;;;;;;;0.30;0.30;;;;;;;22.29;50.29;95163.19;5039311;28;21176;-65
2022/09/03 05:49:00;;;;;;;1.67;1.10;;;;;;;22.70;48.68;95149.94;5058260;28;20452;-66
2022/09/03 05:51:28;;;;;;;0.13;0.13;;;;;;;22.35;49.90;95163.78;5035084;28;20528;-62
2022/09/03 05:53:56;;;;;;;1.03;0.60;;;;;;;21.90;50.63;95168.84;5067378;28;20489;-67
2022/09/03 05:56:26;;;;;;;0.40;0.40;;;;;;;22.81;49.19;95155.69;5042454;28;20844;-64
2022/09/03 05:58:56;;;;;;;1.10;1.00;;;;;;;22.61;48.91;95159.88;5042409;28;20952;-63
2022/09/03 06:01:27;;;;;;;0.30;0.30;;;;;;;22.73;48.90;95159.97;5047888;28;20453;-64
2022/09/03 06:04:02;;;;;;;0.10;0.10;;;;;;;22.79;48.49;95157.91;5067385;28;20470;-66
2022/09/03 06:06:31;;;;;;;0.20;0.20;;;;;;;23.10;48.20;95164.41;5047764;28;20454;-62
2022/09/03 06:09:01;;;;;;;0.40;0.40;;;;;;;22.87;49.24;95171.19;5029968;28;20448;-65
2022/09/03 06:11:31;;;;;;;0.30;0.30;;;;;;;22.49;49.59;95170.47;5041650;28;20440;-65
2022/09/03 06:14:00;;;;;;;0.23;0.23;;;;;;;22.59;49.20;95164.75;5032903;28;20869;-62
2022/09/03 06:16:28;;;;;;;0.50;0.50;;;;;;;22.22;49.73;95170.94;5045021;28;20446;-65
2022/09/03 06:18:58;;;;;;;0.30;0.30;;;;;;;22.75;49.09;95167.66;5059102;28;20579;-66
2022/09/03 06:21:26;;;;;;;1.40;0.77;;;;;;;23.12;48.56;95166.72;5048340;28;21368;-61
2022/09/03 06:23:55;;;;;;;0.10;0.10;;;;;;;23.23;48.48;95161.78;5029788;28;20467;-65
2022/09/03 06:26:27;;;;;;;0.30;0.30;;;;;;;23.20;48.19;95159.75;5053015;28;20200;-66
2022/09/03 06:28:55;;;;;;;0.50;0.30;;;;;;;22.96;48.75;95168.44;5049560;28;21013;-67
2022/09/03 06:31:22;;;;;;;0.47;0.47;;;;;;;22.78;48.83;95173.13;5030892;28;20441;-64
2022/09/03 06:33:50;;;;;;;0.80;0.80;;;;;;;23.01;48.68;95171.69;5041357;28;20558;-63
2022/09/03 06:36:18;;;;;;;0.10;0.10;;;;;;;22.63;49.20;95176.38;5049168;28;20442;-65
2022/09/03 06:38:46;;;;;;;0.23;0.23;;;;;;;22.14;50.25;95179.75;5050944;28;20462;-62
2022/09/03 06:41:24;;;;;;;0.20;0.20;;;;;;;23.11;48.59;95181.22;5025402;28;20992;-61
2022/09/03 06:43:54;;;;;;;0.20;0.20;;;;;;;23.10;48.47;95175.09;5019000;28;20490;-65
2022/09/03 06:46:22;;;;;;;1.60;0.80;;;;;;;23.65;47.48;95172.09;5047222;28;20473;-62
2022/09/03 06:48:50;;;;;;;0.23;0.23;;;;;;;22.89;48.42;95177.00;5045174;28;20876;-65
2022/09/03 06:51:23;;;;;;;0.10;0.10;;;;;;;23.06;48.36;95179.50;5018978;28;20452;-64
2022/09/03 06:53:53;;;;;;;0.30;0.30;;;;;;;23.56;47.37;95176.75;5051835;28;20441;-63
2022/09/03 06:56:25;;;;;;;1.17;1.07;;;;;;;23.32;48.42;95191.94;5028540;28;20255;-64
2022/09/03 06:58:57;;;;;;;1.07;0.77;;;;;;;23.31;47.84;95190.34;5039404;28;20207;-65
2022/09/03 07:01:27;;;;;;;0.10;0.10;;;;;;;22.98;48.00;95183.06;5058708;28;20496;-65
2022/09/03 07:03:56;;;;;;;0.57;0.57;;;;;;;23.04;48.66;95172.94;5058538;28;20856;-64
2022/09/03 07:06:26;;;;;;;0.10;0.10;;;;;;;23.60;47.89;95176.88;5022746;28;20729;-67
2022/09/03 07:08:53;;;;;;;1.23;1.17;;;;;;;23.45;47.58;95180.19;5029380;28;20447;-71
2022/09/03 07:11:22;;;;;;;0.83;0.83;;;;;;;23.73;47.63;95187.28;5030935;28;20444;-70
2022/09/03 07:13:50;;;;;;;0.40;0.40;;;;;;;23.48;47.63;95184.88;5029891;28;20592;-71
2022/09/03 07:16:23;;;;;;;0.73;0.73;;;;;;;24.36;45.73;95187.84;5024646;28;20252;-71
2022/09/03 07:18:51;;;;;;;1.77;1.30;;;;;;;24.38;46.51;95188.31;5026438;28;20447;-67
2022/09/03 07:21:21;;;;;;;1.33;1.23;;;;;;;24.10;46.77;95188.94;5024085;28;20645;-69
2022/09/03 07:23:50;;;;;;;3.43;3.03;;;;;;;24.32;46.48;95200.34;5027345;28;20514;-64
2022/09/03 07:26:20;;;;;;;0.30;0.30;;;;;;;24.09;47.19;95199.97;5025415;28;20220;-68
2022/09/03 07:28:48;;;;;;;2.80;0.77;;;;;;;24.11;46.49;95197.75;5023744;28;20801;-69
2022/09/03 07:31:18;;;;;;;1.13;1.03;;;;;;;24.23;47.09;95205.81;5021537;28;20462;-68
2022/09/03 07:33:46;;;;;;;2.37;2.17;;;;;;;23.76;46.80;95204.56;5026579;28;20962;-66
2022/09/03 07:36:15;;;;;;;1.63;1.53;;;;;;;23.75;46.80;95213.72;5024071;28;20200;-68
2022/09/03 07:38:44;;;;;;;0.47;0.47;;;;;;;23.92;46.42;95224.25;5027337;28;20271;-68
2022/09/03 07:41:13;;;;;;;0.47;0.47;;;;;;;24.11;46.74;95219.19;5025477;28;20193;-68
2022/09/03 07:43:55;;;;;;;2.30;1.93;;;;;;;23.99;46.87;95216.47;5024218;28;20279;-67
2022/09/03 07:46:26;;;;;;;0.27;0.27;;;;;;;24.52;45.86;95216.31;5030054;28;20205;-66
2022/09/03 07:48:55;;;;;;;0.23;0.23;;;;;;;23.91;46.39;95209.28;5030025;28;20203;-67
2022/09/03 07:51:27;;;;;;;0.30;0.30;;;;;;;23.42;47.09;95221.72;5027447;28;20742;-64
2022/09/03 07:53:56;;;;;;;0.20;0.20;;;;;;;23.99;46.21;95208.44;5029129;28;21036;-67
2022/09/03 07:56:25;;;;;;;0.73;0.73;;;;;;;23.62;47.03;95225.47;5026047;28;20208;-66
2022/09/03 07:58:55;;;;;;;1.60;1.37;;;;;;;23.74;47.06;95222.88;5027366;28;20196;-68
2022/09/03 08:01:25;;;;;;;0.67;0.67;;;;;;;23.62;47.42;95223.59;5027066;28;20663;-67
2022/09/03 08:03:53;;;;;;;8.93;5.33;;;;;;;24.69;45.84;95216.06;5023582;28;20249;-67
2022/09/03 08:06:23;;;;;;;0.97;0.97;;;;;;;24.71;45.51;95216.56;5026854;28;20193;-71
2022/09/03 08:08:58;;;;;;;1.33;0.80;;;;;;;23.79;46.53;95223.44;5026485;28;20208;-70
2022/09/03 08:11:34;;;;;;;0.40;0.40;;;;;;;23.26;47.84;95225.28;5023206;28;20201;-66
2022/09/03 08:14:07;;;;;;;0.60;0.60;;;;;;;23.21;48.07;95234.28;5025830;28;20231;-68
2022/09/03 08:16:36;;;;;;;0.67;0.67;;;;;;;23.53;47.78;95224.78;5028270;28;20266;-69
2022/09/03 08:19:04;;;;;;;0.53;0.53;;;;;;;24.22;46.71;95225.66;5028118;28;20247;-69
2022/09/03 08:21:31;;;;;;;0.40;0.40;;;;;;;24.64;45.93;95218.19;5037910;28;20201;-69
2022/09/03 08:24:04;;;;;;;0.50;0.50;;;;;;;24.73;44.79;95225.03;5033974;28;20217;-69
2022/09/03 08:26:36;;;;;;;0.47;0.47;;;;;;;23.97;46.39;95226.72;5030226;28;20251;-69
2022/09/03 08:29:04;;;;;;;0.30;0.30;;;;;;;24.47;46.80;95226.47;5031161;28;20207;-70
2022/09/03 08:31:32;;;;;;;2.53;1.70;;;;;;;24.91;44.98;95215.63;5028419;28;20193;-69
2022/09/03 08:34:05;;;;;;;1.57;1.47;;;;;;;24.79;45.58;95217.56;5039352;28;20605;-69
2022/09/03 08:36:37;;;;;;;2.57;1.83;;;;;;;25.41;43.91;95217.09;5033931;28;20193;-71
2022/09/03 08:39:09;;;;;;;0.60;0.60;;;;;;;25.35;43.30;95196.97;5036288;28;20279;-70
2022/09/03 08:42:01;;;;;;;0.20;0.20;;;;;;;25.63;43.35;95213.91;5030898;28;20579;-69
2022/09/03 08:44:35;;;;;;;0.77;0.77;;;;;;;25.56;45.06;95202.97;5034545;28;20224;-67
2022/09/03 08:47:04;;;;;;;10.47;8.70;;;;;;;25.88;43.77;95205.38;5029065;28;20189;-65
2022/09/03 08:49:50;;;;;;;9.50;5.97;;;;;;;25.94;43.05;95203.22;5033314;28;20196;-66
2022/09/03 08:52:21;;;;;;;0.93;0.93;;;;;;;26.17;42.28;95211.53;5028676;28;20224;-69
2022/09/03 08:54:50;;;;;;;1.23;1.03;;;;;;;25.90;42.63;95207.72;5028086;28;20663;-66
2022/09/03 08:57:19;;;;;;;0.30;0.30;;;;;;;25.95;43.32;95210.16;5035089;28;20197;-70
2022/09/03 08:59:54;;;;;;;0.40;0.40;;;;;;;25.84;43.25;95214.44;5027386;28;20208;-65
2022/09/03 09:02:30;;;;;;;0.17;0.17;;;;;;;26.29;42.90;95208.75;5033708;28;20198;-64
2022/09/03 09:05:24;;;;;;;0.77;0.60;;;;;;;24.99;43.05;95212.06;5036374;28;22551;-68
2022/09/03 09:08:41;;;;;;;1.17;1.17;;;;;;;24.86;43.75;95226.59;5035869;28;20640;-68
2022/09/03 09:11:23;;;;;;;1.17;0.67;;;;;;;25.48;42.52;95217.31;5065052;28;20207;-69
2022/09/03 09:14:29;;;;;;;0.80;0.80;;;;;;;26.13;42.71;95216.78;5036105;28;20200;-64
2022/09/03 09:17:13;;;;;;;7.87;4.57;;;;;;;25.94;41.95;95213.97;5055808;28;20207;-69
2022/09/03 09:19:50;;;;;;;1.03;0.97;;;;;;;26.00;42.52;95212.59;5027506;28;20193;-70
2022/09/03 09:22:28;;;;;;;1.83;1.40;;;;;;;24.99;43.68;95222.78;5025858;28;20247;-67
2022/09/03 09:25:00;;;;;;;1.50;0.77;;;;;;;24.96;42.99;95201.25;5029460;28;20236;-68
2022/09/03 09:27:28;;;;;;;0.90;0.90;;;;;;;25.03;43.32;95220.22;5029494;28;20192;-71
2022/09/03 09:30:00;;;;;;;0.77;0.77;;;;;;;24.58;44.67;95227.59;5035203;28;20189;-65
2022/09/03 09:32:28;;;;;;;0.40;0.40;;;;;;;25.39;43.67;95216.66;5029526;28;20197;-67
2022/09/03 09:34:54;;;;;;;0.43;0.43;;;;;;;25.93;42.23;95220.44;5035737;28;20204;-68
2022/09/03 09:37:22;;;;;;;0.87;0.70;;;;;;;26.27;41.73;95221.72;5032305;28;20197;-68
2022/09/03 09:39:57;;;;;;;1.10;0.63;;;;;;;26.42;42.07;95219.03;5028701;28;20189;-69
2022/09/03 09:42:26;;;;;;;1.30;1.20;;;;;;;26.02;41.65;95221.09;5032478;28;20291;-67
2022/09/03 09:44:53;;;;;;;10.53;2.20;;;;;;;25.33;42.28;95216.09;5037057;28;20917;-69
2022/09/03 09:47:25;;;;;;;0.60;0.50;;;;;;;25.66;42.01;95208.63;5035471;28;20583;-68
2022/09/03 09:49:58;;;;;;;0.57;0.57;;;;;;;26.35;42.40;95213.50;5029346;28;20209;-67
2022/09/03 09:52:29;;;;;;;2.07;0.77;;;;;;;26.82;41.69;95210.81;5029660;28;20247;-68
2022/09/03 09:55:19;;;;;;;0.40;0.40;;;;;;;26.95;41.95;95213.03;5027555;28;20197;-67
2022/09/03 09:57:46;;;;;;;1.43;1.33;;;;;;;27.31;41.12;95211.13;5029584;28;20197;-67
2022/09/03 10:00:16;;;;;;;0.60;0.60;;;;;;;27.15;39.32;95213.06;5031817;28;20196;-67
2022/09/03 10:02:53;;;;;;;0.53;0.53;;;;;;;27.38;39.25;95216.66;5035463;28;20215;-67
2022/09/03 10:05:31;;;;;;;0.40;0.40;;;;;;;27.99;39.10;95215.56;5032400;28;20201;-67
2022/09/03 10:08:01;;;;;;;1.03;1.03;;;;;;;26.56;39.72;95224.78;5026819;28;20232;-67
2022/09/03 10:10:32;;;;;;;0.47;0.47;;;;;;;26.77;40.04;95208.38;5033425;28;20649;-66
2022/09/03 10:13:21;;;;;;;0.40;0.40;;;;;;;27.61;39.25;95214.81;5035375;28;20263;-66
2022/09/03 10:15:59;;;;;;;2.87;0.87;;;;;;;27.72;39.69;95213.09;5033327;28;20197;-69
2022/09/03 10:18:43;;;;;;;7.30;3.93;;;;;;;27.93;38.43;95216.22;5035770;28;20220;-66
2022/09/03 10:21:11;;;;;;;0.30;0.30;;;;;;;27.91;39.80;95216.56;5028819;28;20204;-68
2022/09/03 10:24:01;;;;;;;0.50;0.50;;;;;;;28.19;39.12;95213.63;5032557;28;20220;-69
2022/09/03 10:26:35;;;;;;;0.53;0.53;;;;;;;28.36;38.74;95212.34;5036590;28;20199;-69
2022/09/03 10:29:06;;;;;;;0.63;0.63;;;;;;;28.58;37.83;95209.66;5060333;28;20211;-69
2022/09/03 10:31:35;;;;;;;0.23;0.23;;;;;;;28.54;38.76;95206.13;5046834;28;20201;-69
2022/09/03 10:34:22;;;;;;;1.10;1.00;;;;;;;28.25;38.73;95206.78;5055070;28;20219;-70
2022/09/03 10:37:26;;;;;;;0.47;0.47;;;;;;;28.39;37.66;95217.03;5035684;28;20201;-70
2022/09/03 10:40:19;;;;;;;1.23;1.13;;;;;;;28.26;37.87;95202.16;5043693;28;20811;-70
2022/09/03 10:42:46;;;;;;;1.03;1.00;;;;;;;28.44;37.77;95209.41;5039473;28;20234;-69
2022/09/03 10:45:32;;;;;;;0.50;0.50;;;;;;;28.27;37.75;95203.72;5061592;28;20220;-70
2022/09/03 10:48:26;;;;;;;0.53;0.50;;;;;;;28.44;37.73;95204.03;5060176;28;20300;-69
2022/09/03 10:50:57;;;;;;;1.23;1.10;;;;;;;28.82;36.76;95211.19;5039663;28;20277;-70
2022/09/03 10:53:35;;;;;;;0.70;0.70;;;;;;;28.71;37.48;95199.47;5066505;28;20203;-69
2022/09/03 10:56:13;;;;;;;0.40;0.40;;;;;;;28.85;37.29;95203.13;5048426;28;20197;-69
2022/09/03 10:58:58;;;;;;;0.30;0.30;;;;;;;28.91;36.19;95214.41;5045193;28;20865;-69
2022/09/03 11:01:53;;;;;;;0.67;0.67;;;;;;;28.61;37.60;95208.94;5051495;28;20607;-70
2022/09/03 11:04:40;;;;;;;0.50;0.50;;;;;;;29.24;36.82;95202.94;5037295;28;20235;-69
2022/09/03 11:07:12;;;;;;;1.63;0.80;;;;;;;28.72;35.89;95203.72;5064265;28;20301;-69
2022/09/03 11:09:58;;;;;;;1.50;0.90;;;;;;;28.76;35.52;95205.31;5046823;28;20199;-73
2022/09/03 11:12:30;;;;;;;1.00;0.43;;;;;;;29.67;35.62;95194.97;5070764;28;20237;-68
2022/09/03 11:15:21;;;;;;;0.87;0.87;;;;;;;28.71;36.69;95197.53;5070647;28;20621;-69
2022/09/03 11:18:14;;;;;;;0.33;0.33;;;;;;;28.73;36.68;95206.06;5063777;28;20643;-69
2022/09/03 11:20:43;;;;;;;0.73;0.73;;;;;;;29.18;35.62;95215.22;5070712;28;20847;-68
2022/09/03 11:23:14;;;;;;;7.83;0.93;;;;;;;29.43;35.82;95216.31;5063444;28;20193;-69
2022/09/03 11:26:06;;;;;;;0.40;0.40;;;;;;;29.72;34.92;95202.00;5064267;28;20204;-66
2022/09/03 11:28:40;;;;;;;0.67;0.53;;;;;;;29.69;35.91;95208.91;5051425;28;20692;-68
2022/09/03 11:31:30;;;;;;;0.37;0.37;;;;;;;29.83;34.87;95206.41;5063876;28;20674;-70
2022/09/03 11:34:25;;;;;;;0.23;0.23;;;;;;;29.33;35.42;95200.72;5070088;28;20204;-71
2022/09/03 11:37:14;;;;;;;0.60;0.60;;;;;;;29.20;35.02;95196.69;5045491;28;20204;-70
2022/09/03 11:39:41;;;;;;;0.33;0.30;;;;;;;29.75;35.49;95195.88;5043173;28;20189;-70
2022/09/03 11:42:11;;;;;;;1.60;0.70;;;;;;;29.53;35.53;95204.84;5030779;28;20212;-72
2022/09/03 11:44:41;;;;;;;0.40;0.40;;;;;;;30.24;35.11;95196.34;5029271;28;21378;-69
2022/09/03 11:47:36;;;;;;;4.57;2.00;;;;;;;30.34;35.04;95189.53;5062228;28;20204;-71
2022/09/03 11:50:16;;;;;;;1.17;0.93;;;;;;;30.11;35.18;95197.03;5051824;28;20680;-64
2022/09/03 11:52:43;;;;;;;0.47;0.47;;;;;;;29.60;36.49;95200.28;5045639;28;20206;-68
2022/09/03 11:55:10;;;;;;;0.20;0.20;;;;;;;30.36;35.16;95198.81;5030269;28;20214;-68
2022/09/03 11:57:42;;;;;;;0.50;0.50;;;;;;;30.59;35.01;95191.28;5023586;28;20193;-69
2022/09/03 12:00:14;;;;;;;5.57;2.30;;;;;;;29.52;35.91;95203.28;5026091;28;20288;-70
2022/09/03 12:02:54;;;;;;;1.37;0.90;;;;;;;29.90;35.67;95187.56;5021757;28;20289;-68
2022/09/03 12:05:47;;;;;;;0.30;0.30;;;;;;;29.58;35.56;95191.78;5022015;28;20339;-69